Latest Weather Observations for Oakey

IDQ60901

Issued at 1:21 pm EST Tuesday 30 May 2017 (issued every 10 minutes, with the page automatically refreshed every 10 minutes)

About weather observations | Map of Brisbane area stations | Latest observations for Brisbane area | Other Formats
Station Details ID: 041359 Name: OAKEY AERO Lat: -27.40 Lon: 151.74 Height: 405.69 m
Data from the previous 72 hours. | See also: Recent months at Oakey
Date/Time
EST
Temp
°C
App
Temp
°C
Dew
Point
°C
Rel
Hum
%
Delta-T
°C
Wind Press
QNH
hPa
Press
MSL
hPa
Rain since
9am
mm
Dir  Spd
km/h
Gust
km/h
Spd
kts
Gust
kts
30/01:00pm 20.1 15.1 1.5 29 8.6 WSW 17 24 9 13 1022.0 1021.3 0.0
30/12:30pm 19.6 16.2 1.6 30 8.4 WNW 9 17 5 9 1022.1 1021.4 0.0
30/12:00pm 19.1 15.7 1.6 31 8.1 NW 9 15 5 8 1022.5 1021.9 0.0
30/11:30am 17.8 15.0 3.3 38 6.9 SW 7 13 4 7 1022.9 1022.3 0.0
30/11:00am 16.9 14.4 3.9 42 6.2 WSW 6 9 3 5 1023.6 1022.9 0.0
30/10:30am 15.7 13.3 4.4 47 5.4 WSW 6 11 3 6 1024.0 1023.3 0.0
30/10:00am 14.7 12.3 5.2 53 4.6 SW 7 11 4 6 1024.2 1023.5 0.0
30/09:30am 12.5 10.2 4.7 59 3.7 S 6 9 3 5 1024.5 1023.9 0.0
30/09:00am 11.0 9.9 4.9 66 2.8 CALM 0 6 0 3 1024.5 1023.9 0.0
30/08:30am 9.8 8.8 5.6 75 2.0 CALM 0 0 0 0 1024.3 1023.6 0.0
30/08:00am 7.2 4.9 4.7 84 1.1 SSE 6 9 3 5 1023.8 1023.1 0.0
30/07:30am 5.1 2.5 4.1 93 0.4 E 7 9 4 5 1023.7 1023.0 0.0
30/07:00am 2.2 -1.3 1.3 94 0.4 N 9 9 5 5 1023.5 1022.8 0.0
30/06:30am 1.3 -2.0 0.0 91 0.5 NE 7 9 4 5 1023.5 1022.8 0.0
30/06:00am 2.3 -1.2 1.0 91 0.5 ESE 9 9 5 5 1022.7 1022.1 0.0
30/05:30am 3.0 -0.1 1.4 89 0.6 E 7 9 4 5 1022.4 1021.8 0.0
30/05:00am 4.2 1.5 2.4 88 0.7 SE 6 7 3 4 1022.4 1021.8 0.0
30/04:30am 4.5 2.9 2.4 86 0.9 CALM 0 0 0 0 1022.6 1022.0 0.0
30/04:00am 5.5 2.9 3.2 85 1.0 SSE 6 7 3 4 1022.5 1021.9 0.0
30/03:30am 5.1 3.2 3.1 87 0.8 SE 2 7 1 4 1022.3 1021.7 0.0
30/03:00am 5.3 3.8 3.2 86 0.9 CALM 0 7 0 4 1022.3 1021.7 0.0
30/02:30am 5.9 4.1 3.4 84 1.1 SSW 2 7 1 4 1022.3 1021.7 0.0
30/02:00am 6.6 5.3 4.1 84 1.1 CALM 0 0 0 0 1022.6 1022.0 0.0
30/01:30am 7.6 6.4 4.4 80 1.4 CALM 0 0 0 0 1022.8 1022.2 0.0
30/01:00am 7.3 4.0 4.6 83 1.2 N 11 13 6 7 1023.0 1022.4 0.0
30/12:30am 7.0 4.9 4.0 81 1.3 N 4 9 2 5 1022.9 1022.3 0.0
30/12:00am 8.9 6.5 4.5 74 2.0 E 6 7 3 4 1022.8 1022.2 0.0
 
Date/Time
EST
Temp
°C
App
Temp
°C
Dew
Point
°C
Rel
Hum
%
Delta-T
°C
Wind Press
QNH
hPa
Press
MSL
hPa
Rain since
9am
mm
Dir  Spd
km/h
Gust
km/h
Spd
kts
Gust
kts
29/11:30pm 7.7 4.6 3.7 76 1.8 NNE 9 11 5 6 1022.9 1022.3 0.0
29/11:00pm 7.8 4.5 4.4 79 1.5 NNE 11 13 6 7 1022.4 1021.8 0.0
29/10:30pm 9.2 6.7 3.8 69 2.4 ENE 6 9 3 5 1022.1 1021.4 0.0
29/10:00pm 8.8 6.2 3.4 69 2.4 NNE 6 9 3 5 1022.6 1022.0 0.0
29/09:30pm 10.5 6.9 3.1 60 3.3 SSW 11 13 6 7 1022.5 1021.9 0.0
29/09:00pm 10.9 7.0 3.5 60 3.3 S 13 15 7 8 1022.1 1021.4 0.0
29/08:30pm 12.3 8.5 3.8 56 3.9 SSW 13 17 7 9 1022.3 1021.7 0.0
29/08:00pm 10.6 6.8 4.1 64 2.9 SSW 13 15 7 8 1022.3 1021.7 0.0
29/07:30pm 13.0 9.2 3.9 54 4.2 SW 13 17 7 9 1022.2 1021.5 0.0
29/07:00pm 13.8 10.7 3.6 50 4.7 SSW 9 13 5 7 1021.9 1021.2 0.0
29/06:30pm 14.0 10.6 3.8 50 4.7 S 11 13 6 7 1021.3 1020.6 0.0
29/06:00pm 15.4 11.3 4.2 47 5.3 SW 15 17 8 9 1020.9 1020.2 0.0
29/05:30pm 16.6 12.1 4.3 44 5.9 SSW 17 20 9 11 1020.3 1019.7 0.0
29/05:00pm 18.2 13.7 4.4 40 6.7 SW 17 22 9 12 1019.9 1019.2 0.0
29/04:30pm 20.2 15.1 4.3 35 7.8 SW 20 26 11 14 1019.6 1018.9 0.0
29/04:00pm 21.2 15.7 3.9 32 8.5 SW 22 30 12 16 1019.3 1018.6 0.0
29/03:30pm 22.0 16.1 4.1 31 8.9 WSW 24 30 13 16 1019.2 1018.5 0.0
29/03:00pm 22.4 16.6 4.5 31 9.0 WSW 24 33 13 18 1019.1 1018.4 0.0
29/02:30pm 22.6 16.4 4.2 30 9.2 WSW 26 39 14 21 1019.0 1018.3 0.0
29/02:00pm 22.6 16.8 4.6 31 9.0 W 24 39 13 21 1018.9 1018.2 0.0
29/01:30pm 22.6 16.8 4.6 31 9.1 WSW 24 35 13 19 1018.9 1018.2 0.0
29/01:00pm 22.5 16.6 4.1 30 9.1 W 24 35 13 19 1019.2 1018.5 0.0
29/12:30pm 22.1 16.4 4.7 32 8.7 W 24 33 13 18 1019.4 1018.7 0.0
29/12:00pm 21.5 15.8 5.0 34 8.3 W 24 33 13 18 1019.6 1018.9 0.0
29/11:30am 21.1 15.7 4.6 34 8.2 W 22 32 12 17 1020.0 1019.3 0.0
29/11:00am 20.5 16.5 6.8 41 7.1 W 17 24 9 13 1020.2 1019.6 0.0
29/10:30am 19.1 17.0 9.6 54 5.1 W 11 17 6 9 1020.6 1020.0 0.0
29/10:00am 18.0 16.2 9.6 58 4.5 W 9 13 5 7 1021.0 1020.3 0.0
29/09:30am 16.8 15.4 10.9 68 3.2 NW 9 13 5 7 1021.2 1020.5 0.0
29/09:00am 15.5 14.7 11.7 78 2.1 NW 7 11 4 6 1021.0 1020.3 0.0
29/08:30am 14.0 13.2 11.7 86 1.3 W 7 11 4 6 1021.1 1020.4 0.0
29/08:00am 12.3 11.2 11.8 97 0.3 WNW 9 13 5 7 1020.9 1020.2 0.0
29/07:30am 9.2 6.4 8.7 97 0.2 SSW 13 35 7 19 1020.5 1019.9 0.0
29/07:00am 6.0 3.3 5.6 97 0.2 SE 9 11 5 6 1019.8 1019.1 0.0
29/06:30am 5.4 3.1 5.0 97 0.2 SSE 6 7 3 4 1019.8 1019.1 0.0
29/06:00am 5.5 3.1 5.1 97 0.2 SE 7 9 4 5 1019.4 1018.7 0.0
29/05:30am 6.4 4.3 6.0 97 0.2 ESE 6 7 3 4 1019.2 1018.5 0.0
29/05:05am 6.4 4.2 6.0 97 0.2 ESE 7 9 4 5 1019.0 1018.3 0.0
29/05:00am 6.8 4.8 6.4 97 0.2 ESE 6 9 3 5 1018.9 1018.2 0.0
29/04:45am 6.6 5.3 6.2 97 0.2 ESE 2 6 1 3 1018.9 1018.2 0.0
29/04:30am 6.7 4.6 6.0 95 0.3 ESE 6 7 3 4 1018.9 1018.2 0.0
29/04:00am 7.1 5.0 6.5 96 0.3 E 7 7 4 4 1018.9 1018.2 0.0
29/03:30am 7.3 5.3 6.4 94 0.4 NE 6 7 3 4 1019.0 1018.3 0.0
29/03:00am 7.7 5.3 6.8 94 0.4 E 9 11 5 6 1019.0 1018.3 0.0
29/02:30am 8.4 6.4 7.3 93 0.5 SE 7 9 4 5 1019.1 1018.4 0.0
29/02:00am 8.6 7.2 7.2 91 0.7 ENE 4 7 2 4 1019.1 1018.4 0.0
29/01:30am 9.2 7.6 8.0 92 0.6 ENE 6 7 3 4 1019.3 1018.6 0.0
29/01:00am 9.3 8.1 7.9 91 0.7 ESE 4 9 2 5 1019.4 1018.7 0.0
29/12:30am 9.6 7.9 8.2 91 0.7 SE 7 9 4 5 1019.2 1018.5 0.0
29/12:00am 9.5 7.3 7.8 89 0.8 SE 9 9 5 5 1019.2 1018.5 0.0
 
Date/Time
EST
Temp
°C
App
Temp
°C
Dew
Point
°C
Rel
Hum
%
Delta-T
°C
Wind Press
QNH
hPa
Press
MSL
hPa
Rain since
9am
mm
Dir  Spd
km/h
Gust
km/h
Spd
kts
Gust
kts
28/11:30pm 10.1 7.3 8.5 90 0.8 SSE 13 13 7 7 1019.1 1018.4 0.0
28/11:00pm 10.6 8.6 8.5 87 1.1 SSE 9 11 5 6 1019.1 1018.4 0.0
28/10:30pm 10.8 8.9 8.9 88 1.0 S 9 11 5 6 1019.1 1018.4 0.0
28/10:00pm 12.2 11.0 9.4 83 1.4 SE 6 9 3 5 1019.0 1018.3 0.0
28/09:30pm 13.0 11.5 10.5 85 1.3 NW 9 11 5 6 1019.4 1018.7 0.0
28/09:00pm 11.8 10.3 9.2 84 1.3 SE 7 9 4 5 1019.0 1018.3 0.0
28/08:30pm 11.9 9.8 8.4 79 1.8 ESE 9 11 5 6 1018.9 1018.2 0.0
28/08:00pm 13.6 13.4 9.1 74 2.3 CALM 0 0 0 0 1018.6 1017.9 0.0
28/07:30pm 14.7 13.7 10.3 75 2.4 ENE 6 9 3 5 1018.5 1017.8 0.0
28/07:00pm 14.7 12.7 10.1 74 2.4 N 11 13 6 7 1018.2 1017.5 0.0
28/06:30pm 14.7 11.9 10.1 74 2.4 NNW 15 17 8 9 1017.7 1017.0 0.0
28/06:00pm 16.1 13.4 10.4 69 3.1 NNW 15 17 8 9 1017.4 1016.7 0.0
28/05:30pm 18.0 15.4 10.6 62 4.1 NNW 15 17 8 9 1017.1 1016.4 0.0
28/05:00pm 20.2 16.4 9.2 49 5.9 NNW 19 24 10 13 1016.6 1015.9 0.0
28/04:30pm 21.7 17.7 8.2 42 7.2 WNW 19 24 10 13 1016.4 1015.7 0.0
28/04:00pm 22.5 17.1 7.9 39 7.8 WNW 26 35 14 19 1016.3 1015.6 0.0
28/03:30pm 22.4 18.9 8.9 42 7.3 NW 17 20 9 11 1016.2 1015.5 0.0
28/03:00pm 22.6 18.2 9.0 42 7.4 WNW 22 32 12 17 1016.4 1015.7 0.0
28/02:30pm 23.3 20.4 11.0 46 7.0 NW 17 22 9 12 1016.6 1015.9 0.0
28/02:00pm 23.2 20.0 11.9 49 6.5 W 20 28 11 15 1016.8 1016.1 0.0
28/01:30pm 22.8 19.3 10.9 47 6.7 W 20 32 11 17 1017.0 1016.3 0.0
28/01:00pm 22.8 19.4 11.2 48 6.6 WNW 20 30 11 16 1017.4 1016.7 0.0
28/12:30pm 22.2 19.1 10.4 47 6.6 WNW 17 32 9 17 1017.7 1017.0 0.0
28/12:00pm 21.3 19.3 12.7 58 5.0 W 15 22 8 12 1018.3 1017.6 0.0
28/11:30am 20.7 18.1 11.9 57 5.0 W 17 22 9 12 1018.6 1017.9 0.0
28/11:00am 20.5 18.9 11.4 56 5.1 WNW 11 20 6 11 1019.1 1018.4 0.0
28/10:30am 19.4 17.5 12.9 66 3.7 WSW 15 20 8 11 1019.6 1018.9 0.0
28/10:00am 19.1 17.0 13.5 70 3.2 WSW 17 20 9 11 1019.9 1019.2 0.0
28/09:30am 19.3 19.3 13.5 69 3.4 N 6 9 3 5 1019.6 1018.9 0.0
28/09:00am 17.9 16.4 13.2 74 2.7 NNE 13 17 7 9 1019.5 1018.8 0.0
28/08:30am 16.3 15.8 13.8 85 1.4 E 9 13 5 7 1019.5 1018.8 0.0
28/08:00am 14.7 14.7 14.1 96 0.3 E 7 9 4 5 1019.8 1019.1 0.0
28/07:30am 12.9 11.6 12.4 97 0.3 E 11 13 6 7 1019.7 1019.0 0.0
28/07:00am 10.7 8.3 10.2 97 0.3 SE 13 15 7 8 1019.5 1018.8 0.0
28/06:30am 9.8 6.8 9.3 97 0.3 E 15 17 8 9 1019.0 1018.3 0.0
28/06:00am 9.3 6.6 8.8 97 0.2 E 13 13 7 7 1019.0 1018.3 0.0
28/05:30am 9.5 8.0 9.0 97 0.3 SE 7 9 4 5 1019.1 1018.4 0.0
28/05:00am 10.5 8.1 10.0 97 0.3 ESE 13 13 7 7 1019.0 1018.3 0.0
28/04:30am 10.7 8.3 10.2 97 0.3 E 13 15 7 8 1018.9 1018.2 0.0
28/04:00am 10.8 8.1 10.3 97 0.3 E 15 17 8 9 1018.9 1018.2 0.0
28/03:43am 9.8 7.2 9.3 97 0.3 E 13 15 7 8 1019.0 1018.3 0.0
28/03:30am 10.2 7.7 9.7 97 0.3 E 13 13 7 7 1019.0 1018.3 0.0
28/03:00am 9.8 7.2 9.3 97 0.3 E 13 13 7 7 1019.1 1018.4 0.0
28/02:54am 9.9 7.3 9.4 97 0.3 E 13 13 7 7 1019.1 1018.4 0.0
28/02:30am 11.3 8.7 10.8 97 0.3 E 15 17 8 9 1019.2 1018.5 0.0
28/02:00am 11.9 9.1 11.4 97 0.3 E 17 17 9 9 1019.6 1018.9 0.0
28/01:30am 12.2 10.3 11.7 97 0.3 E 13 15 7 8 1020.0 1019.3 0.0
28/01:00am 12.1 9.8 11.6 97 0.3 E 15 17 8 9 1019.9 1019.2 0.0
28/12:30am 11.5 9.7 11.0 97 0.3 E 11 13 6 7 1020.0 1019.3 0.0
28/12:00am 11.3 9.0 10.5 95 0.4 E 13 13 7 7 1020.1 1019.4 0.0
 
Date/Time
EST
Temp
°C
App
Temp
°C
Dew
Point
°C
Rel
Hum
%
Delta-T
°C
Wind Press
QNH
hPa
Press
MSL
hPa
Rain since
9am
mm
Dir  Spd
km/h
Gust
km/h
Spd
kts
Gust
kts
27/11:30pm 12.3 10.3 11.5 95 0.4 E 13 17 7 9 1020.4 1019.8 0.0
27/11:00pm 11.9 10.0 10.5 91 0.7 E 11 13 6 7 1020.5 1019.9 0.0
27/10:30pm 12.5 10.7 10.9 90 0.9 E 11 13 6 7 1020.8 1020.1 0.0
27/10:00pm 13.0 10.0 10.7 86 1.2 E 17 17 9 9 1020.6 1020.0 0.0
27/09:30pm 12.3 9.3 9.3 82 1.5 E 15 19 8 10 1020.5 1019.9 0.0
27/09:00pm 13.1 9.7 9.0 76 2.1 E 17 19 9 10 1020.8 1020.1 0.0
27/08:30pm 13.0 10.3 8.9 76 2.1 E 13 17 7 9 1020.5 1019.9 0.0
27/08:00pm 13.7 10.6 9.0 73 2.4 E 15 17 8 9 1020.4 1019.8 0.0
27/07:30pm 14.4 11.7 9.0 70 2.8 ENE 13 17 7 9 1020.4 1019.8 0.0
27/07:00pm 14.8 11.8 9.2 69 2.9 ENE 15 17 8 9 1020.2 1019.6 0.0
27/06:30pm 14.8 11.9 9.6 71 2.7 ENE 15 17 8 9 1020.1 1019.4 0.0
27/06:00pm 15.6 12.3 9.5 67 3.2 ENE 17 17 9 9 1019.7 1019.0 0.0
27/05:30pm 16.8 13.8 9.2 61 4.0 E 15 17 8 9 1019.5 1018.8 0.0
27/05:00pm 18.7 14.7 9.2 54 5.1 E 20 24 11 13 1019.1 1018.4 0.0
27/04:30pm 19.9 16.0 9.5 51 5.6 E 20 30 11 16 1018.8 1018.1 0.0
27/04:00pm 20.9 16.7 9.8 49 6.1 E 22 28 12 15 1018.8 1018.1 0.0
27/03:30pm 21.1 16.7 9.0 46 6.5 E 22 26 12 14 1018.8 1018.1 0.0
27/03:00pm 22.5 18.6 8.6 41 7.5 E 19 28 10 15 1018.8 1018.1 0.0
27/02:30pm 23.3 20.6 7.4 36 8.5 E 11 24 6 13 1018.7 1018.0 0.0
27/02:00pm 22.8 21.0 7.0 36 8.3 W 6 9 3 5 1018.8 1018.1 0.0
27/01:30pm 22.8 20.4 7.0 36 8.3 NNW 9 20 5 11 1019.1 1018.4 0.0

Latest Capital City Observations: Canberra | Sydney | Melbourne | Brisbane | Adelaide | Perth | Hobart | Darwin

Other Formats:

Comma delimited format used in spreadsheet applications
http://www.bom.gov.au/fwo/IDQ60901/IDQ60901.94552.axf

JavaScript Object Notation format (JSON) in row-major order
http://www.bom.gov.au/fwo/IDQ60901/IDQ60901.94552.json